createdAt,value
2022-08-05T00:00:19.605Z,101023.41
2022-08-05T00:03:07.790Z,101021.20
2022-08-05T00:06:06.540Z,101019.16
2022-08-05T00:08:36.254Z,101019.80
2022-08-05T00:11:20.709Z,101017.04
2022-08-05T00:13:56.511Z,101016.97
2022-08-05T00:16:36.571Z,101017.44
2022-08-05T00:19:13.441Z,101017.02
2022-08-05T00:21:42.580Z,101015.86
2022-08-05T00:24:11.380Z,101014.02
2022-08-05T00:26:51.954Z,101013.93
2022-08-05T00:29:22.559Z,101014.38
2022-08-05T00:32:10.576Z,101015.92
2022-08-05T00:35:04.760Z,101016.95
2022-08-05T00:37:35.770Z,101016.88
2022-08-05T00:40:27.362Z,101021.11
2022-08-05T00:42:58.806Z,101018.88
2022-08-05T00:45:37.899Z,101020.45
2022-08-05T00:48:09.355Z,101020.75
2022-08-05T00:50:44.364Z,101022.66
2022-08-05T00:54:00.302Z,101017.93
2022-08-05T00:56:05.734Z,101020.36
2022-08-05T00:58:38.535Z,101019.04
2022-08-05T01:01:12.360Z,101018.44
2022-08-05T01:03:42.149Z,101019.99
2022-08-05T01:06:15.286Z,101019.38
2022-08-05T01:08:47.119Z,101018.07
2022-08-05T01:11:22.348Z,101018.39
2022-08-05T01:14:08.777Z,101012.76
2022-08-05T01:16:52.403Z,101011.45
2022-08-05T01:20:02.341Z,101008.70
2022-08-05T01:22:39.551Z,101002.73
2022-08-05T01:25:39.656Z,101003.39
2022-08-05T01:28:22.425Z,101001.73
2022-08-05T01:30:56.031Z,100999.33
2022-08-05T01:33:35.589Z,100998.56
2022-08-05T01:36:12.695Z,100997.98
2022-08-05T01:38:48.314Z,100995.93
2022-08-05T01:41:21.763Z,100996.39
2022-08-05T01:43:55.178Z,100995.06
2022-08-05T01:46:43.092Z,100992.86
2022-08-05T01:49:23.420Z,100992.09
2022-08-05T01:52:02.213Z,100992.95
2022-08-05T01:54:51.949Z,100988.23
2022-08-05T01:58:12.657Z,100986.73
2022-08-05T02:00:16.390Z,100982.38
2022-08-05T02:02:54.949Z,100981.39
2022-08-05T02:05:30.964Z,100979.35
2022-08-05T02:08:03.657Z,100978.20
2022-08-05T02:10:39.016Z,100976.70
2022-08-05T02:13:16.061Z,100977.19
2022-08-05T02:15:59.119Z,100977.11
2022-08-05T02:18:37.133Z,100969.14
2022-08-05T02:21:16.245Z,100968.18
2022-08-05T02:23:48.508Z,100966.14
2022-08-05T02:26:27.119Z,100964.65
2022-08-05T02:28:58.257Z,100961.02
2022-08-05T02:31:34.783Z,100958.80
2022-08-05T02:34:09.208Z,100959.45
2022-08-05T02:36:43.994Z,100955.80
2022-08-05T02:39:21.359Z,100959.16
2022-08-05T02:41:57.821Z,100955.70
2022-08-05T02:44:32.178Z,100949.19
2022-08-05T02:47:02.601Z,100949.80
2022-08-05T02:49:36.577Z,100949.95
2022-08-05T02:52:11.508Z,100950.02
2022-08-05T02:54:50.659Z,100946.04
2022-08-05T02:58:12.112Z,100945.07
2022-08-05T03:00:14.646Z,100942.52
2022-08-05T03:02:45.197Z,100943.34
2022-08-05T03:05:15.338Z,100942.93
2022-08-05T03:08:01.155Z,100941.20
2022-08-05T03:10:34.422Z,100940.42
2022-08-05T03:13:10.859Z,100939.97
2022-08-05T03:15:47.479Z,100943.34
2022-08-05T03:18:17.436Z,100940.80
2022-08-05T03:20:48.966Z,100944.52
2022-08-05T03:23:18.944Z,100945.02
2022-08-05T03:26:30.088Z,100941.92
2022-08-05T03:28:41.503Z,100944.18
2022-08-05T03:31:10.852Z,100943.61
2022-08-05T03:33:52.911Z,100946.63
2022-08-05T03:36:30.070Z,100948.01
2022-08-05T03:39:05.530Z,100949.39
2022-08-05T03:41:45.232Z,100952.05
2022-08-05T03:44:19.845Z,100943.98
2022-08-05T03:46:48.629Z,100951.11
2022-08-05T03:49:17.383Z,100954.80
2022-08-05T03:52:50.547Z,100956.57
2022-08-05T03:56:03.748Z,100957.11
2022-08-05T03:57:44.520Z,100956.55
2022-08-05T04:00:16.486Z,100954.25
2022-08-05T04:02:58.120Z,100955.21
2022-08-05T04:05:33.942Z,100958.17
2022-08-05T04:08:29.640Z,100952.77
2022-08-05T04:10:55.353Z,100948.31
2022-08-05T04:13:24.440Z,100949.14
2022-08-05T04:16:04.167Z,100949.67
2022-08-05T04:18:34.483Z,100950.55
2022-08-05T04:21:05.258Z,100948.88
2022-08-05T04:23:57.106Z,100946.89
2022-08-05T04:26:24.571Z,100949.34
2022-08-05T04:28:53.238Z,100948.43
2022-08-05T04:31:22.226Z,100948.20
2022-08-05T04:34:31.960Z,100946.38
2022-08-05T04:36:46.324Z,100944.75
2022-08-05T04:39:18.497Z,100944.56
2022-08-05T04:41:48.277Z,100939.13
2022-08-05T04:44:21.450Z,100936.77
2022-08-05T04:46:58.503Z,100938.70
2022-08-05T04:49:38.465Z,100933.63
2022-08-05T04:52:16.563Z,100928.52
2022-08-05T04:54:44.995Z,100926.80
2022-08-05T04:57:13.377Z,100930.05
2022-08-05T04:59:41.729Z,100928.30
2022-08-05T05:02:36.679Z,100928.22
2022-08-05T05:05:01.713Z,100924.86
2022-08-05T05:07:32.709Z,100927.21
2022-08-05T05:10:06.347Z,100930.28
2022-08-05T05:12:36.742Z,100930.48
2022-08-05T05:15:10.722Z,100932.10
2022-08-05T05:17:57.037Z,100933.06
2022-08-05T05:20:28.826Z,100937.07
2022-08-05T05:22:58.359Z,100934.11
2022-08-05T05:25:40.568Z,100938.26
2022-08-05T05:28:10.428Z,100936.48
2022-08-05T05:30:41.619Z,100938.00
2022-08-05T05:33:17.082Z,100938.08
2022-08-05T05:35:46.582Z,100938.17
2022-08-05T05:38:22.231Z,100934.48
2022-08-05T05:40:56.907Z,100936.41
2022-08-05T05:48:07.140Z,100925.55
2022-08-05T05:50:31.235Z,100929.58
2022-08-05T05:53:02.552Z,100931.05
2022-08-05T05:55:52.264Z,100932.16
2022-08-05T05:58:31.403Z,100935.20
2022-08-05T06:01:12.320Z,100934.81
2022-08-05T06:04:00.400Z,100927.83
2022-08-05T06:06:31.075Z,100931.79
2022-08-05T06:09:03.994Z,100930.57
2022-08-05T06:11:35.286Z,100928.94
2022-08-05T06:14:07.924Z,100924.43
2022-08-05T06:16:38.468Z,100931.41
2022-08-05T06:19:07.417Z,100927.88
2022-08-05T06:21:38.869Z,100927.55
2022-08-05T06:24:12.853Z,100931.17
2022-08-05T06:26:51.801Z,100928.90
2022-08-05T06:29:25.063Z,100928.98
2022-08-05T06:32:25.585Z,100926.60
2022-08-05T06:36:06.822Z,100926.51
2022-08-05T06:39:18.837Z,100921.54
2022-08-05T06:41:51.022Z,100919.29
2022-08-05T06:49:21.289Z,100912.47
2022-08-05T06:52:36.952Z,100910.77
2022-08-05T07:31:17.445Z,100878.33
2022-08-05T08:00:25.047Z,100864.67
2022-08-05T09:11:07.768Z,100841.84
2022-08-05T09:14:09.517Z,100835.48
2022-08-05T09:16:32.819Z,100833.70
2022-08-05T09:19:06.706Z,100834.98
2022-08-05T09:22:18.377Z,100830.86
2022-08-05T09:24:31.772Z,100828.16
2022-08-05T09:27:08.481Z,100829.20
2022-08-05T09:29:47.980Z,100819.92
2022-08-05T09:32:46.012Z,100820.09
2022-08-05T09:35:26.808Z,100812.11
2022-08-05T09:38:16.459Z,100811.53
2022-08-05T09:40:53.750Z,100811.13
2022-08-05T09:43:41.614Z,100812.77
2022-08-05T09:46:28.825Z,100812.91
2022-08-05T09:49:19.621Z,100810.35
2022-08-05T09:51:51.846Z,100810.16
2022-08-05T09:54:32.360Z,100804.66
2022-08-05T09:57:04.269Z,100803.56
2022-08-05T09:59:58.122Z,100800.98
2022-08-05T10:02:39.459Z,100793.69
2022-08-05T10:05:15.410Z,100793.27
2022-08-05T10:08:34.653Z,100788.69
2022-08-05T10:10:54.354Z,100792.60
2022-08-05T10:13:47.792Z,100798.16
2022-08-05T10:16:37.754Z,100795.77
2022-08-05T10:19:14.782Z,100798.14
2022-08-05T10:21:50.143Z,100792.89
2022-08-05T10:24:24.958Z,100791.95
2022-08-05T10:27:01.232Z,100784.68
2022-08-05T10:30:06.719Z,100777.08
2022-08-05T10:32:54.429Z,100774.58
2022-08-05T10:35:24.062Z,100767.18
2022-08-05T10:38:13.985Z,100760.88
2022-08-05T10:40:58.009Z,100761.89
2022-08-05T10:43:41.414Z,100763.67
2022-08-05T10:46:17.716Z,100762.91
2022-08-05T10:48:56.967Z,100761.63
2022-08-05T10:51:57.510Z,100756.35
2022-08-05T10:54:56.076Z,100757.81
2022-08-05T10:57:33.885Z,100754.23
2022-08-05T11:00:18.736Z,100756.05
2022-08-05T11:03:24.924Z,100752.11
2022-08-05T11:06:16.234Z,100749.16
2022-08-05T11:09:16.607Z,100747.84
2022-08-05T11:11:53.653Z,100747.39
2022-08-05T11:14:57.502Z,100748.00
2022-08-05T11:18:00.151Z,100743.38
2022-08-05T11:20:39.188Z,100740.08
2022-08-05T11:23:33.626Z,100737.59
2022-08-05T11:26:28.484Z,100731.80
2022-08-05T11:29:13.345Z,100730.23
2022-08-05T11:31:57.405Z,100725.23
2022-08-05T11:34:52.215Z,100716.67
2022-08-05T11:38:29.052Z,100723.88
2022-08-05T11:41:15.457Z,100727.02
2022-08-05T11:44:06.418Z,100731.07
2022-08-05T11:47:09.271Z,100730.83
2022-08-05T11:49:35.328Z,100729.89
2022-08-05T11:52:08.643Z,100728.79
2022-08-05T11:54:48.557Z,100726.59
2022-08-05T11:58:08.260Z,100726.13
2022-08-05T12:00:30.624Z,100724.63
2022-08-05T12:03:28.859Z,100722.02
2022-08-05T12:06:10.020Z,100724.41
2022-08-05T12:08:50.956Z,100711.22
2022-08-05T12:11:24.877Z,100708.77
2022-08-05T12:14:04.385Z,100704.85
2022-08-05T12:16:38.505Z,100702.92
2022-08-05T12:20:26.092Z,100695.41
2022-08-05T12:22:09.731Z,100693.85
2022-08-05T12:24:49.462Z,100690.20
2022-08-05T12:27:26.605Z,100693.16
2022-08-05T12:30:07.880Z,100697.47
2022-08-05T12:32:50.778Z,100692.36
2022-08-05T12:35:37.238Z,100693.82
2022-08-05T12:38:12.194Z,100692.21
2022-08-05T12:40:47.262Z,100690.39
2022-08-05T12:43:22.297Z,100692.24
2022-08-05T12:45:57.113Z,100692.23
2022-08-05T12:48:32.905Z,100688.03
2022-08-05T12:52:10.178Z,100689.43
2022-08-05T12:54:14.687Z,100695.08
2022-08-05T12:56:54.035Z,100694.55
2022-08-05T12:59:46.936Z,100685.27
2022-08-05T13:02:27.303Z,100680.38
2022-08-05T13:05:07.006Z,100673.20
2022-08-05T13:08:00.377Z,100675.39
2022-08-05T13:10:34.325Z,100672.02
2022-08-05T13:13:09.030Z,100671.85
2022-08-05T13:15:50.892Z,100671.80
2022-08-05T13:18:24.042Z,100663.12
2022-08-05T13:20:56.229Z,100656.34
2022-08-05T13:23:28.120Z,100655.66
2022-08-05T13:26:03.782Z,100653.05
2022-08-05T13:28:35.640Z,100650.34
2022-08-05T13:31:15.943Z,100652.92
2022-08-05T13:34:22.397Z,100646.40
2022-08-05T13:36:44.035Z,100640.33
2022-08-05T13:40:13.041Z,100637.03
2022-08-05T13:42:15.122Z,100633.33
2022-08-05T13:44:47.706Z,100635.05
2022-08-05T13:47:28.085Z,100634.81
2022-08-05T13:50:14.830Z,100634.55
2022-08-05T13:52:50.058Z,100635.08
2022-08-05T13:55:41.474Z,100632.44
2022-08-05T13:58:30.176Z,100631.21
2022-08-05T14:01:03.057Z,100624.86
2022-08-05T14:03:35.881Z,100625.86
2022-08-05T14:06:26.611Z,100625.04
2022-08-05T14:08:59.458Z,100621.26
2022-08-05T14:11:32.008Z,100619.09
2022-08-05T14:14:26.084Z,100615.71
2022-08-05T14:17:05.483Z,100615.98
2022-08-05T14:19:54.391Z,100613.58
2022-08-05T14:22:30.290Z,100611.89
2022-08-05T14:25:30.079Z,100616.28
2022-08-05T14:28:31.359Z,100611.27
2022-08-05T14:31:03.373Z,100610.56
2022-08-05T14:35:14.394Z,100609.66
2022-08-05T14:37:57.869Z,100607.50
2022-08-05T14:42:20.937Z,100613.88
2022-08-05T14:59:21.850Z,100612.29
2022-08-05T15:02:42.835Z,100617.08
2022-08-05T15:05:18.629Z,100620.20
2022-08-05T15:08:06.200Z,100622.96
2022-08-05T15:10:43.521Z,100619.90
2022-08-05T15:13:51.441Z,100621.58
2022-08-05T15:16:24.841Z,100615.10
2022-08-05T15:18:58.505Z,100615.39
2022-08-05T15:21:32.816Z,100616.42
2022-08-05T15:24:08.325Z,100608.30
2022-08-05T15:26:41.379Z,100609.79
2022-08-05T15:29:24.142Z,100605.41
2022-08-05T15:34:18.506Z,100600.08
2022-08-05T15:36:51.074Z,100599.05
2022-08-05T15:40:59.098Z,100599.17
2022-08-05T15:42:54.680Z,100595.34
2022-08-05T15:45:11.397Z,100596.57
2022-08-05T15:47:46.027Z,100596.02
2022-08-05T15:50:18.965Z,100592.25
2022-08-05T15:53:01.837Z,100585.23
2022-08-05T16:54:44.361Z,100541.98
2022-08-05T16:57:22.074Z,100532.52
2022-08-05T17:00:34.639Z,100539.10
2022-08-05T17:03:15.450Z,100539.32
2022-08-05T17:05:53.618Z,100541.33
2022-08-05T17:08:33.640Z,100537.79
2022-08-05T17:11:16.848Z,100536.89
2022-08-05T17:13:47.180Z,100526.90
2022-08-05T17:16:32.714Z,100524.31
2022-08-05T17:19:02.194Z,100527.34
2022-08-05T17:21:36.236Z,100527.91
2022-08-05T17:24:19.368Z,100524.83
2022-08-05T17:26:57.307Z,100529.02
2022-08-05T17:29:33.302Z,100529.34
2022-08-05T17:32:11.940Z,100532.15
2022-08-05T17:34:47.522Z,100533.96
2022-08-05T17:37:41.495Z,100527.91
2022-08-05T17:40:12.460Z,100529.89
2022-08-05T17:42:50.783Z,100530.04
2022-08-05T17:45:22.081Z,100530.02
2022-08-05T17:47:55.077Z,100527.44
2022-08-05T17:50:28.517Z,100530.75
2022-08-05T17:53:00.387Z,100534.58
2022-08-05T17:55:34.214Z,100536.71
2022-08-05T17:58:07.009Z,100534.35
2022-08-05T18:00:40.874Z,100532.83
2022-08-05T18:03:24.120Z,100537.90
2022-08-05T18:06:05.333Z,100536.45
2022-08-05T18:08:34.076Z,100534.77
2022-08-05T18:11:03.440Z,100540.29
2022-08-05T18:13:36.814Z,100542.05
2022-08-05T18:16:13.820Z,100539.23
2022-08-05T18:18:42.341Z,100534.84
2022-08-05T18:21:21.314Z,100539.33
2022-08-05T18:23:54.505Z,100539.95
2022-08-05T18:26:29.155Z,100540.95
2022-08-05T18:28:58.989Z,100539.80
2022-08-05T18:31:33.080Z,100541.34
2022-08-05T18:34:06.138Z,100546.52
2022-08-05T18:36:37.911Z,100548.45
2022-08-05T18:39:09.979Z,100544.38
2022-08-05T18:42:02.180Z,100544.27
2022-08-05T18:44:34.916Z,100540.91
2022-08-05T18:47:04.969Z,100542.78
2022-08-05T18:49:57.820Z,100543.39
2022-08-05T18:52:36.451Z,100543.58
2022-08-05T18:55:10.311Z,100547.42
2022-08-05T18:57:43.316Z,100556.16
2022-08-05T19:00:29.381Z,100564.55
2022-08-05T19:03:03.796Z,100573.28
2022-08-05T19:06:12.872Z,100612.42
2022-08-05T19:08:31.368Z,100654.58
2022-08-05T19:11:04.446Z,100645.19
2022-08-05T19:13:40.138Z,100653.73
2022-08-05T19:16:24.964Z,100645.46
2022-08-05T19:18:57.775Z,100654.89
2022-08-05T19:21:29.609Z,100655.61
2022-08-05T19:24:08.921Z,100657.07
2022-08-05T19:26:44.064Z,100656.34
2022-08-05T19:29:24.185Z,100658.85
2022-08-05T19:31:57.489Z,100655.45
2022-08-05T19:34:29.628Z,100654.39
2022-08-05T19:36:58.826Z,100662.59
2022-08-05T19:39:29.466Z,100666.26
2022-08-05T19:42:08.128Z,100672.48
2022-08-05T19:44:45.012Z,100681.40
2022-08-05T19:47:16.345Z,100687.81
2022-08-05T19:49:46.051Z,100692.41
2022-08-05T19:52:30.418Z,100697.36
2022-08-05T19:56:15.272Z,100712.98
2022-08-05T19:58:57.580Z,100720.45
2022-08-05T20:01:45.951Z,100724.46
2022-08-05T20:04:15.413Z,100737.34
2022-08-05T20:06:46.547Z,100754.37
2022-08-05T20:09:15.357Z,100764.16
2022-08-05T20:11:54.362Z,100770.14
2022-08-05T20:14:54.157Z,100763.31
2022-08-05T20:18:33.133Z,100772.52
2022-08-05T20:21:28.212Z,100762.27
2022-08-05T20:35:04.482Z,100764.42
2022-08-05T20:38:06.087Z,100784.70
2022-08-05T20:41:43.485Z,100773.77
2022-08-05T20:44:18.788Z,100766.45
2022-08-05T20:46:58.061Z,100768.61
2022-08-05T20:49:26.632Z,100773.16
2022-08-05T20:51:57.503Z,100779.14
2022-08-05T20:54:59.821Z,100782.95
2022-08-05T20:57:41.803Z,100789.80
2022-08-05T21:00:51.814Z,100782.95
2022-08-05T21:07:15.336Z,100778.05
2022-08-05T21:12:40.939Z,100778.19
2022-08-05T21:16:09.182Z,100784.14
2022-08-05T21:18:42.963Z,100784.30
2022-08-05T21:21:14.362Z,100790.96
2022-08-05T21:23:45.914Z,100812.17
2022-08-05T21:26:26.392Z,100814.44
2022-08-05T21:29:03.840Z,100825.20
2022-08-05T21:35:55.393Z,100818.80
2022-08-05T21:39:26.507Z,100821.05
2022-08-05T21:52:38.926Z,100834.30
2022-08-05T21:56:01.235Z,100837.11
2022-08-05T21:58:13.336Z,100837.77
2022-08-05T22:01:12.461Z,100847.08
2022-08-05T22:03:58.494Z,100849.67
2022-08-05T22:06:35.333Z,100857.69
2022-08-05T22:09:13.657Z,100864.28
2022-08-05T22:11:47.810Z,100872.33
2022-08-05T22:17:59.846Z,100889.15
2022-08-05T22:20:32.322Z,100888.20
2022-08-05T22:23:25.470Z,100891.17
2022-08-05T22:26:56.812Z,100910.23
2022-08-05T22:29:30.705Z,100915.89
2022-08-05T22:32:27.118Z,100907.41
2022-08-05T22:34:59.126Z,100910.31
2022-08-05T22:37:58.111Z,100893.10
2022-08-05T22:40:23.919Z,100882.45
2022-08-05T22:43:55.235Z,100896.42
2022-08-05T22:47:30.055Z,100904.21
2022-08-05T22:50:26.515Z,100897.96
2022-08-05T22:52:59.136Z,100908.37
2022-08-05T22:55:56.522Z,100916.61
2022-08-05T22:58:28.261Z,100918.92
2022-08-05T23:01:00.662Z,100922.11
2022-08-05T23:03:58.034Z,100924.61
2022-08-05T23:06:26.411Z,100935.49
2022-08-05T23:09:27.122Z,100941.84
2022-08-05T23:11:50.281Z,100939.09
2022-08-05T23:14:32.021Z,100930.27
2022-08-05T23:17:24.187Z,100913.76
2022-08-05T23:20:06.002Z,100904.08
2022-08-05T23:22:48.342Z,100909.20
2022-08-05T23:25:52.961Z,100898.00
2022-08-05T23:28:12.882Z,100909.41
2022-08-05T23:30:53.069Z,100909.56
2022-08-05T23:34:04.700Z,100917.10
2022-08-05T23:36:18.034Z,100931.55
2022-08-05T23:43:24.309Z,100956.11
2022-08-05T23:45:57.715Z,100966.08
2022-08-05T23:48:29.564Z,100969.86
2022-08-05T23:51:01.330Z,100977.54
2022-08-05T23:53:46.708Z,100983.78
2022-08-05T23:56:50.856Z,100985.14
2022-08-05T23:59:27.788Z,100992.61
